sensor_id;sensor_type;location;lat;lon;timestamp;temperature;humidity
152;DHT22;68;48.792;9.164;2023-06-22T04:17:09;20.90;88.80
152;DHT22;68;48.792;9.164;2023-06-22T04:19:39;20.50;87.20
152;DHT22;68;48.792;9.164;2023-06-22T04:22:06;20.30;84.90
152;DHT22;68;48.792;9.164;2023-06-22T04:24:33;20.20;82.40
152;DHT22;68;48.792;9.164;2023-06-22T04:26:59;20.10;80.20
152;DHT22;68;48.792;9.164;2023-06-22T04:29:28;20.20;80.20
152;DHT22;68;48.792;9.164;2023-06-22T04:31:55;20.30;79.80
152;DHT22;68;48.792;9.164;2023-06-22T04:34:25;20.40;81.00
152;DHT22;68;48.792;9.164;2023-06-22T04:36:52;20.70;82.50
152;DHT22;68;48.792;9.164;2023-06-22T04:39:19;21.10;87.10
152;DHT22;68;48.792;9.164;2023-06-22T04:41:46;21.30;89.20
152;DHT22;68;48.792;9.164;2023-06-22T04:44:14;21.40;89.90
152;DHT22;68;48.792;9.164;2023-06-22T04:46:49;21.30;90.10
152;DHT22;68;48.792;9.164;2023-06-22T04:49:20;21.40;90.50
152;DHT22;68;48.792;9.164;2023-06-22T04:51:48;21.60;90.90
152;DHT22;68;48.792;9.164;2023-06-22T04:54:17;21.60;91.10
152;DHT22;68;48.792;9.164;2023-06-22T04:56:44;21.50;91.10
152;DHT22;68;48.792;9.164;2023-06-22T04:59:12;21.30;90.80
152;DHT22;68;48.792;9.164;2023-06-22T05:01:39;21.10;90.10
152;DHT22;68;48.792;9.164;2023-06-22T05:04:06;21.00;89.20
152;DHT22;68;48.792;9.164;2023-06-22T05:06:33;21.20;90.20
152;DHT22;68;48.792;9.164;2023-06-22T05:09:01;21.20;90.30
152;DHT22;68;48.792;9.164;2023-06-22T05:11:28;20.90;88.80
152;DHT22;68;48.792;9.164;2023-06-22T05:13:56;20.70;87.90
152;DHT22;68;48.792;9.164;2023-06-22T05:16:23;20.80;87.00
152;DHT22;68;48.792;9.164;2023-06-22T05:18:52;20.70;86.40
152;DHT22;68;48.792;9.164;2023-06-22T05:21:22;20.90;87.10
152;DHT22;68;48.792;9.164;2023-06-22T05:23:48;20.80;88.30
152;DHT22;68;48.792;9.164;2023-06-22T05:26:17;20.70;88.30
152;DHT22;68;48.792;9.164;2023-06-22T05:28:44;20.90;87.90
152;DHT22;68;48.792;9.164;2023-06-22T05:31:12;21.00;87.80
152;DHT22;68;48.792;9.164;2023-06-22T05:33:38;21.00;88.20
152;DHT22;68;48.792;9.164;2023-06-22T05:36:05;20.90;89.10
152;DHT22;68;48.792;9.164;2023-06-22T05:38:32;20.90;89.10
152;DHT22;68;48.792;9.164;2023-06-22T05:40:59;20.90;89.00
152;DHT22;68;48.792;9.164;2023-06-22T05:43:27;20.90;87.50
152;DHT22;68;48.792;9.164;2023-06-22T05:45:54;21.00;89.30
152;DHT22;68;48.792;9.164;2023-06-22T05:48:21;21.00;88.40
152;DHT22;68;48.792;9.164;2023-06-22T05:50:48;21.10;89.90
152;DHT22;68;48.792;9.164;2023-06-22T05:53:15;21.20;89.70
152;DHT22;68;48.792;9.164;2023-06-22T05:55:42;21.40;90.80
152;DHT22;68;48.792;9.164;2023-06-22T05:58:08;21.60;91.70
152;DHT22;68;48.792;9.164;2023-06-22T06:00:37;21.60;91.60
152;DHT22;68;48.792;9.164;2023-06-22T06:03:03;21.70;92.30
152;DHT22;68;48.792;9.164;2023-06-22T06:05:30;21.60;91.70
152;DHT22;68;48.792;9.164;2023-06-22T06:07:58;21.40;91.50
152;DHT22;68;48.792;9.164;2023-06-22T06:10:24;21.40;91.30
152;DHT22;68;48.792;9.164;2023-06-22T06:12:51;21.60;91.80
152;DHT22;68;48.792;9.164;2023-06-22T06:15:18;21.80;92.10
152;DHT22;68;48.792;9.164;2023-06-22T06:17:47;21.70;92.20
152;DHT22;68;48.792;9.164;2023-06-22T06:20:14;21.60;92.00
152;DHT22;68;48.792;9.164;2023-06-22T06:22:41;21.50;91.80
152;DHT22;68;48.792;9.164;2023-06-22T06:25:09;21.60;92.20
152;DHT22;68;48.792;9.164;2023-06-22T06:27:41;21.90;92.30
152;DHT22;68;48.792;9.164;2023-06-22T06:30:09;21.90;92.20
152;DHT22;68;48.792;9.164;2023-06-22T06:32:36;22.10;92.10
152;DHT22;68;48.792;9.164;2023-06-22T06:35:06;22.20;92.10
152;DHT22;68;48.792;9.164;2023-06-22T06:37:35;22.10;92.10
152;DHT22;68;48.792;9.164;2023-06-22T06:42:30;22.30;91.50
152;DHT22;68;48.792;9.164;2023-06-22T06:44:57;22.20;91.80
152;DHT22;68;48.792;9.164;2023-06-22T06:47:24;22.30;92.10
152;DHT22;68;48.792;9.164;2023-06-22T06:49:51;22.40;91.80
152;DHT22;68;48.792;9.164;2023-06-22T06:52:19;22.30;91.80
152;DHT22;68;48.792;9.164;2023-06-22T06:54:46;22.20;91.80
152;DHT22;68;48.792;9.164;2023-06-22T06:57:12;22.30;91.90
152;DHT22;68;48.792;9.164;2023-06-22T06:59:40;22.40;91.50
152;DHT22;68;48.792;9.164;2023-06-22T07:02:07;22.70;91.10
152;DHT22;68;48.792;9.164;2023-06-22T07:04:34;23.00;90.60
152;DHT22;68;48.792;9.164;2023-06-22T07:07:02;23.10;89.20
152;DHT22;68;48.792;9.164;2023-06-22T07:09:30;23.00;90.00
152;DHT22;68;48.792;9.164;2023-06-22T07:11:56;22.90;89.70
152;DHT22;68;48.792;9.164;2023-06-22T07:14:23;22.80;89.40
152;DHT22;68;48.792;9.164;2023-06-22T07:16:50;22.70;90.30
152;DHT22;68;48.792;9.164;2023-06-22T07:19:24;22.80;90.30
152;DHT22;68;48.792;9.164;2023-06-22T07:21:51;23.00;89.50
152;DHT22;68;48.792;9.164;2023-06-22T07:24:19;22.90;90.00
152;DHT22;68;48.792;9.164;2023-06-22T07:26:47;23.00;90.10
152;DHT22;68;48.792;9.164;2023-06-22T07:29:15;23.20;89.20
152;DHT22;68;48.792;9.164;2023-06-22T07:31:42;23.20;88.50
152;DHT22;68;48.792;9.164;2023-06-22T07:34:09;23.40;89.10
152;DHT22;68;48.792;9.164;2023-06-22T07:36:35;23.50;87.80
152;DHT22;68;48.792;9.164;2023-06-22T07:39:02;23.70;87.60
152;DHT22;68;48.792;9.164;2023-06-22T07:41:29;23.90;87.80
152;DHT22;68;48.792;9.164;2023-06-22T07:43:57;24.10;87.20
152;DHT22;68;48.792;9.164;2023-06-22T07:46:24;24.00;86.60
152;DHT22;68;48.792;9.164;2023-06-22T07:48:51;24.10;85.70
152;DHT22;68;48.792;9.164;2023-06-22T07:51:18;24.30;85.80
152;DHT22;68;48.792;9.164;2023-06-22T07:53:44;24.30;84.30
152;DHT22;68;48.792;9.164;2023-06-22T07:56:11;24.40;85.70
152;DHT22;68;48.792;9.164;2023-06-22T07:58:39;24.50;85.20
152;DHT22;68;48.792;9.164;2023-06-22T08:01:07;24.50;83.70
152;DHT22;68;48.792;9.164;2023-06-22T08:03:34;24.70;84.50
152;DHT22;68;48.792;9.164;2023-06-22T08:06:00;24.80;84.10
152;DHT22;68;48.792;9.164;2023-06-22T08:08:27;24.80;84.00
152;DHT22;68;48.792;9.164;2023-06-22T08:10:54;24.60;83.10
152;DHT22;68;48.792;9.164;2023-06-22T08:13:21;24.50;83.80
152;DHT22;68;48.792;9.164;2023-06-22T08:15:47;24.70;84.80
152;DHT22;68;48.792;9.164;2023-06-22T08:18:16;24.90;83.30
152;DHT22;68;48.792;9.164;2023-06-22T08:20:42;24.90;82.70
152;DHT22;68;48.792;9.164;2023-06-22T08:23:09;25.00;82.70
152;DHT22;68;48.792;9.164;2023-06-22T08:25:36;25.10;80.60
152;DHT22;68;48.792;9.164;2023-06-22T08:28:04;25.30;81.20
152;DHT22;68;48.792;9.164;2023-06-22T08:30:31;25.30;80.60
152;DHT22;68;48.792;9.164;2023-06-22T08:32:57;25.50;82.60
152;DHT22;68;48.792;9.164;2023-06-22T08:35:26;25.70;80.10
152;DHT22;68;48.792;9.164;2023-06-22T08:37:52;25.60;79.80
152;DHT22;68;48.792;9.164;2023-06-22T08:40:21;25.90;80.50
152;DHT22;68;48.792;9.164;2023-06-22T08:42:48;26.20;79.20
152;DHT22;68;48.792;9.164;2023-06-22T08:45:15;26.30;79.00
152;DHT22;68;48.792;9.164;2023-06-22T08:47:42;26.30;79.40
152;DHT22;68;48.792;9.164;2023-06-22T08:50:09;26.50;79.00
152;DHT22;68;48.792;9.164;2023-06-22T08:52:38;26.50;76.90
152;DHT22;68;48.792;9.164;2023-06-22T08:55:07;26.60;78.00
152;DHT22;68;48.792;9.164;2023-06-22T08:57:34;26.80;77.00
152;DHT22;68;48.792;9.164;2023-06-22T09:00:03;27.00;76.20
152;DHT22;68;48.792;9.164;2023-06-22T09:02:36;27.00;75.70
152;DHT22;68;48.792;9.164;2023-06-22T09:05:06;27.00;75.60
152;DHT22;68;48.792;9.164;2023-06-22T09:07:33;27.10;76.20
152;DHT22;68;48.792;9.164;2023-06-22T09:10:01;27.30;75.30
152;DHT22;68;48.792;9.164;2023-06-22T09:12:30;27.50;75.40
152;DHT22;68;48.792;9.164;2023-06-22T09:14:58;27.60;74.70
152;DHT22;68;48.792;9.164;2023-06-22T09:17:25;27.60;73.20
152;DHT22;68;48.792;9.164;2023-06-22T09:19:52;27.60;74.70
152;DHT22;68;48.792;9.164;2023-06-22T09:22:19;27.60;74.50
152;DHT22;68;48.792;9.164;2023-06-22T09:24:46;27.90;76.10
152;DHT22;68;48.792;9.164;2023-06-22T09:27:14;27.90;76.20
152;DHT22;68;48.792;9.164;2023-06-22T09:29:41;28.00;73.70
152;DHT22;68;48.792;9.164;2023-06-22T09:32:08;28.20;72.00
152;DHT22;68;48.792;9.164;2023-06-22T09:34:35;28.30;72.50
152;DHT22;68;48.792;9.164;2023-06-22T09:37:02;28.30;71.20
152;DHT22;68;48.792;9.164;2023-06-22T09:39:28;28.40;72.10
152;DHT22;68;48.792;9.164;2023-06-22T09:41:55;28.40;72.00
152;DHT22;68;48.792;9.164;2023-06-22T09:44:23;28.50;71.90
152;DHT22;68;48.792;9.164;2023-06-22T09:46:50;28.50;71.60
152;DHT22;68;48.792;9.164;2023-06-22T09:49:17;28.50;70.70
152;DHT22;68;48.792;9.164;2023-06-22T09:51:43;28.70;70.10
152;DHT22;68;48.792;9.164;2023-06-22T09:54:10;28.80;70.70
152;DHT22;68;48.792;9.164;2023-06-22T09:56:37;28.90;69.40
152;DHT22;68;48.792;9.164;2023-06-22T09:59:04;28.90;69.60
152;DHT22;68;48.792;9.164;2023-06-22T10:01:32;28.90;70.40
152;DHT22;68;48.792;9.164;2023-06-22T10:03:58;28.90;68.60
152;DHT22;68;48.792;9.164;2023-06-22T10:06:25;28.90;68.80
152;DHT22;68;48.792;9.164;2023-06-22T10:08:52;28.90;70.00
152;DHT22;68;48.792;9.164;2023-06-22T10:11:19;28.90;69.70
152;DHT22;68;48.792;9.164;2023-06-22T10:13:45;29.00;70.90
152;DHT22;68;48.792;9.164;2023-06-22T10:16:12;29.10;70.70
152;DHT22;68;48.792;9.164;2023-06-22T10:18:40;29.10;69.60
152;DHT22;68;48.792;9.164;2023-06-22T10:21:07;28.90;70.60
152;DHT22;68;48.792;9.164;2023-06-22T10:23:34;28.70;71.70
152;DHT22;68;48.792;9.164;2023-06-22T10:26:01;28.70;72.00
152;DHT22;68;48.792;9.164;2023-06-22T10:28:28;28.90;70.20
152;DHT22;68;48.792;9.164;2023-06-22T10:30:54;29.10;69.20
152;DHT22;68;48.792;9.164;2023-06-22T10:33:21;29.20;69.90
152;DHT22;68;48.792;9.164;2023-06-22T10:35:50;29.30;69.00
152;DHT22;68;48.792;9.164;2023-06-22T10:38:16;29.40;68.60
152;DHT22;68;48.792;9.164;2023-06-22T10:40:43;29.40;68.90
152;DHT22;68;48.792;9.164;2023-06-22T10:43:10;29.40;67.70
152;DHT22;68;48.792;9.164;2023-06-22T10:45:36;29.50;68.90
152;DHT22;68;48.792;9.164;2023-06-22T10:48:04;29.70;67.80
152;DHT22;68;48.792;9.164;2023-06-22T10:50:30;29.70;68.70
152;DHT22;68;48.792;9.164;2023-06-22T10:52:59;29.80;67.10
152;DHT22;68;48.792;9.164;2023-06-22T10:55:26;30.00;68.50
152;DHT22;68;48.792;9.164;2023-06-22T10:57:52;29.80;66.30
152;DHT22;68;48.792;9.164;2023-06-22T11:00:19;29.70;68.90
152;DHT22;68;48.792;9.164;2023-06-22T11:02:46;29.70;68.20
152;DHT22;68;48.792;9.164;2023-06-22T11:05:13;29.70;67.30
152;DHT22;68;48.792;9.164;2023-06-22T11:07:41;29.50;68.70
152;DHT22;68;48.792;9.164;2023-06-22T11:10:10;29.50;68.20
152;DHT22;68;48.792;9.164;2023-06-22T11:12:37;29.60;68.20
152;DHT22;68;48.792;9.164;2023-06-22T11:15:05;29.70;69.10
152;DHT22;68;48.792;9.164;2023-06-22T11:17:31;29.60;67.90
152;DHT22;68;48.792;9.164;2023-06-22T11:19:58;29.80;68.20
152;DHT22;68;48.792;9.164;2023-06-22T11:22:25;29.80;67.10
152;DHT22;68;48.792;9.164;2023-06-22T11:24:52;29.90;67.70
152;DHT22;68;48.792;9.164;2023-06-22T11:27:20;29.90;67.80
152;DHT22;68;48.792;9.164;2023-06-22T11:29:47;30.00;67.50
152;DHT22;68;48.792;9.164;2023-06-22T11:32:15;30.10;67.10
152;DHT22;68;48.792;9.164;2023-06-22T11:34:42;30.00;66.90
152;DHT22;68;48.792;9.164;2023-06-22T11:37:08;30.20;67.60
152;DHT22;68;48.792;9.164;2023-06-22T11:39:35;30.30;66.30
152;DHT22;68;48.792;9.164;2023-06-22T11:42:02;30.30;65.90
152;DHT22;68;48.792;9.164;2023-06-22T11:44:30;30.30;66.10
152;DHT22;68;48.792;9.164;2023-06-22T11:46:57;30.30;65.40
152;DHT22;68;48.792;9.164;2023-06-22T11:49:26;30.20;65.00
152;DHT22;68;48.792;9.164;2023-06-22T11:51:53;30.30;65.40
152;DHT22;68;48.792;9.164;2023-06-22T11:54:19;30.50;65.60
152;DHT22;68;48.792;9.164;2023-06-22T11:56:46;30.60;66.60
152;DHT22;68;48.792;9.164;2023-06-22T11:59:13;30.50;66.20
152;DHT22;68;48.792;9.164;2023-06-22T12:01:41;30.50;65.90
152;DHT22;68;48.792;9.164;2023-06-22T12:04:08;30.50;65.20
152;DHT22;68;48.792;9.164;2023-06-22T12:06:37;30.40;65.40
152;DHT22;68;48.792;9.164;2023-06-22T12:09:07;30.40;65.50
152;DHT22;68;48.792;9.164;2023-06-22T12:11:34;30.20;67.10
152;DHT22;68;48.792;9.164;2023-06-22T12:14:01;30.20;68.00
152;DHT22;68;48.792;9.164;2023-06-22T12:16:28;30.20;68.00
152;DHT22;68;48.792;9.164;2023-06-22T12:18:56;30.30;68.20
152;DHT22;68;48.792;9.164;2023-06-22T12:21:23;30.40;69.70
152;DHT22;68;48.792;9.164;2023-06-22T12:23:49;30.40;68.10
152;DHT22;68;48.792;9.164;2023-06-22T12:26:16;30.30;69.10
152;DHT22;68;48.792;9.164;2023-06-22T12:28:43;30.30;67.20
152;DHT22;68;48.792;9.164;2023-06-22T12:31:10;30.20;68.50
152;DHT22;68;48.792;9.164;2023-06-22T12:33:36;30.30;67.00
152;DHT22;68;48.792;9.164;2023-06-22T12:36:05;30.40;67.20
152;DHT22;68;48.792;9.164;2023-06-22T12:38:31;30.50;67.50
152;DHT22;68;48.792;9.164;2023-06-22T12:40:58;30.50;66.40
152;DHT22;68;48.792;9.164;2023-06-22T12:43:25;30.40;67.80
152;DHT22;68;48.792;9.164;2023-06-22T12:45:52;30.50;68.10
152;DHT22;68;48.792;9.164;2023-06-22T12:48:19;30.60;67.90
152;DHT22;68;48.792;9.164;2023-06-22T12:50:46;30.50;70.70
152;DHT22;68;48.792;9.164;2023-06-22T12:53:14;30.50;70.00
152;DHT22;68;48.792;9.164;2023-06-22T12:55:41;30.70;68.60
152;DHT22;68;48.792;9.164;2023-06-22T12:58:08;30.70;67.80
152;DHT22;68;48.792;9.164;2023-06-22T13:00:35;30.60;69.20
152;DHT22;68;48.792;9.164;2023-06-22T13:03:01;30.60;68.20
152;DHT22;68;48.792;9.164;2023-06-22T13:05:28;30.50;69.00
152;DHT22;68;48.792;9.164;2023-06-22T13:07:56;30.30;68.70
152;DHT22;68;48.792;9.164;2023-06-22T13:10:24;30.20;68.10
152;DHT22;68;48.792;9.164;2023-06-22T13:12:50;30.20;68.40
152;DHT22;68;48.792;9.164;2023-06-22T13:15:20;30.30;68.60
152;DHT22;68;48.792;9.164;2023-06-22T13:17:47;30.30;69.90
152;DHT22;68;48.792;9.164;2023-06-22T13:20:14;30.20;69.30
152;DHT22;68;48.792;9.164;2023-06-22T13:22:40;30.20;69.70
152;DHT22;68;48.792;9.164;2023-06-22T13:25:09;30.30;68.50
152;DHT22;68;48.792;9.164;2023-06-22T13:27:39;30.50;70.20
152;DHT22;68;48.792;9.164;2023-06-22T13:30:09;30.70;69.00
152;DHT22;68;48.792;9.164;2023-06-22T13:32:36;30.70;68.10
152;DHT22;68;48.792;9.164;2023-06-22T13:35:03;30.80;70.00
152;DHT22;68;48.792;9.164;2023-06-22T13:37:30;31.00;68.70
152;DHT22;68;48.792;9.164;2023-06-22T13:39:57;31.20;69.30
152;DHT22;68;48.792;9.164;2023-06-22T13:42:25;31.20;68.60
152;DHT22;68;48.792;9.164;2023-06-22T13:44:53;31.20;66.90
152;DHT22;68;48.792;9.164;2023-06-22T13:47:19;31.10;67.20
152;DHT22;68;48.792;9.164;2023-06-22T13:49:46;31.20;67.20
152;DHT22;68;48.792;9.164;2023-06-22T13:52:13;31.20;67.00
152;DHT22;68;48.792;9.164;2023-06-22T13:54:40;31.20;66.80
152;DHT22;68;48.792;9.164;2023-06-22T13:57:07;31.10;66.00
152;DHT22;68;48.792;9.164;2023-06-22T13:59:34;31.10;65.60
152;DHT22;68;48.792;9.164;2023-06-22T14:02:02;31.20;66.40
152;DHT22;68;48.792;9.164;2023-06-22T14:04:29;31.10;68.70
152;DHT22;68;48.792;9.164;2023-06-22T14:06:56;31.00;70.40
152;DHT22;68;48.792;9.164;2023-06-22T14:09:23;31.20;69.10
152;DHT22;68;48.792;9.164;2023-06-22T14:11:49;31.20;69.40
152;DHT22;68;48.792;9.164;2023-06-22T14:14:16;31.30;67.10
152;DHT22;68;48.792;9.164;2023-06-22T14:16:43;31.10;67.10
152;DHT22;68;48.792;9.164;2023-06-22T14:19:11;31.20;67.00
152;DHT22;68;48.792;9.164;2023-06-22T14:21:38;31.20;68.50
152;DHT22;68;48.792;9.164;2023-06-22T14:24:05;31.30;65.00
152;DHT22;68;48.792;9.164;2023-06-22T14:26:31;31.40;66.60
152;DHT22;68;48.792;9.164;2023-06-22T14:28:58;31.40;65.20
152;DHT22;68;48.792;9.164;2023-06-22T14:31:25;31.40;64.70
152;DHT22;68;48.792;9.164;2023-06-22T14:33:52;31.50;63.90
152;DHT22;68;48.792;9.164;2023-06-22T14:36:20;31.30;62.80
152;DHT22;68;48.792;9.164;2023-06-22T14:38:47;31.30;64.30
152;DHT22;68;48.792;9.164;2023-06-22T14:41:13;31.40;65.40
152;DHT22;68;48.792;9.164;2023-06-22T14:43:45;31.20;63.70
152;DHT22;68;48.792;9.164;2023-06-22T14:46:12;31.30;64.90
152;DHT22;68;48.792;9.164;2023-06-22T14:48:39;31.30;64.40
152;DHT22;68;48.792;9.164;2023-06-22T14:51:06;31.40;64.70
152;DHT22;68;48.792;9.164;2023-06-22T14:53:34;31.50;62.20
152;DHT22;68;48.792;9.164;2023-06-22T14:56:01;31.50;62.20
152;DHT22;68;48.792;9.164;2023-06-22T14:58:28;31.50;60.20
152;DHT22;68;48.792;9.164;2023-06-22T15:00:55;31.50;62.70
152;DHT22;68;48.792;9.164;2023-06-22T15:03:22;31.50;62.10
152;DHT22;68;48.792;9.164;2023-06-22T15:05:53;31.70;59.30
152;DHT22;68;48.792;9.164;2023-06-22T15:08:20;31.70;53.40
152;DHT22;68;48.792;9.164;2023-06-22T15:10:48;31.60;51.20
152;DHT22;68;48.792;9.164;2023-06-22T15:13:15;31.60;53.20
152;DHT22;68;48.792;9.164;2023-06-22T15:15:42;31.50;51.80
152;DHT22;68;48.792;9.164;2023-06-22T15:18:09;31.40;53.60
152;DHT22;68;48.792;9.164;2023-06-22T15:20:36;31.30;51.90
152;DHT22;68;48.792;9.164;2023-06-22T15:23:03;31.50;53.30
152;DHT22;68;48.792;9.164;2023-06-22T15:25:29;31.60;52.30
152;DHT22;68;48.792;9.164;2023-06-22T15:27:57;31.70;52.90
152;DHT22;68;48.792;9.164;2023-06-22T15:30:24;31.80;51.70
152;DHT22;68;48.792;9.164;2023-06-22T15:32:51;31.70;51.40
152;DHT22;68;48.792;9.164;2023-06-22T15:35:18;31.60;52.30
152;DHT22;68;48.792;9.164;2023-06-22T15:37:45;31.60;52.00
152;DHT22;68;48.792;9.164;2023-06-22T15:40:12;31.60;50.80
152;DHT22;68;48.792;9.164;2023-06-22T15:42:39;31.60;51.20
152;DHT22;68;48.792;9.164;2023-06-22T15:45:08;31.70;52.00
152;DHT22;68;48.792;9.164;2023-06-22T15:47:35;31.80;52.40
152;DHT22;68;48.792;9.164;2023-06-22T15:50:02;31.70;50.00
152;DHT22;68;48.792;9.164;2023-06-22T15:52:29;31.60;51.20
152;DHT22;68;48.792;9.164;2023-06-22T15:54:56;31.40;51.90
152;DHT22;68;48.792;9.164;2023-06-22T15:57:26;31.50;50.50
152;DHT22;68;48.792;9.164;2023-06-22T15:59:53;31.60;50.10
152;DHT22;68;48.792;9.164;2023-06-22T16:02:21;31.60;50.50
152;DHT22;68;48.792;9.164;2023-06-22T16:04:48;31.60;50.80
152;DHT22;68;48.792;9.164;2023-06-22T16:07:16;31.60;50.70
152;DHT22;68;48.792;9.164;2023-06-22T16:09:42;31.40;51.80
152;DHT22;68;48.792;9.164;2023-06-22T16:12:09;31.30;51.80
152;DHT22;68;48.792;9.164;2023-06-22T16:14:36;31.30;52.00
152;DHT22;68;48.792;9.164;2023-06-22T16:17:05;31.20;52.60
152;DHT22;68;48.792;9.164;2023-06-22T16:19:34;31.00;52.40
152;DHT22;68;48.792;9.164;2023-06-22T16:22:00;30.80;52.10
152;DHT22;68;48.792;9.164;2023-06-22T16:24:27;30.70;50.40
152;DHT22;68;48.792;9.164;2023-06-22T16:26:54;30.70;51.30
152;DHT22;68;48.792;9.164;2023-06-22T16:29:21;30.50;52.80
152;DHT22;68;48.792;9.164;2023-06-22T16:31:47;30.50;52.10
152;DHT22;68;48.792;9.164;2023-06-22T16:34:14;30.50;51.00
152;DHT22;68;48.792;9.164;2023-06-22T16:36:42;30.30;52.00
152;DHT22;68;48.792;9.164;2023-06-22T16:39:09;30.40;53.90
152;DHT22;68;48.792;9.164;2023-06-22T16:41:36;30.50;52.20
152;DHT22;68;48.792;9.164;2023-06-22T16:44:03;30.60;52.70
152;DHT22;68;48.792;9.164;2023-06-22T16:46:32;30.50;53.20
152;DHT22;68;48.792;9.164;2023-06-22T16:48:59;30.50;53.30
152;DHT22;68;48.792;9.164;2023-06-22T16:51:26;30.70;53.90
152;DHT22;68;48.792;9.164;2023-06-22T16:53:55;30.40;53.10
152;DHT22;68;48.792;9.164;2023-06-22T16:56:24;30.50;53.70
152;DHT22;68;48.792;9.164;2023-06-22T16:58:53;30.30;53.30
152;DHT22;68;48.792;9.164;2023-06-22T17:01:22;30.30;54.60
152;DHT22;68;48.792;9.164;2023-06-22T17:03:56;30.40;54.20
152;DHT22;68;48.792;9.164;2023-06-22T17:06:25;30.10;54.90
152;DHT22;68;48.792;9.164;2023-06-22T17:08:54;30.00;54.90
152;DHT22;68;48.792;9.164;2023-06-22T17:11:22;29.90;55.20
152;DHT22;68;48.792;9.164;2023-06-22T17:13:50;29.90;55.50
152;DHT22;68;48.792;9.164;2023-06-22T17:16:17;29.80;55.10
152;DHT22;68;48.792;9.164;2023-06-22T17:18:46;29.80;57.10
152;DHT22;68;48.792;9.164;2023-06-22T17:21:20;29.80;56.20
152;DHT22;68;48.792;9.164;2023-06-22T17:23:48;29.80;56.40
152;DHT22;68;48.792;9.164;2023-06-22T17:26:16;29.70;58.30
152;DHT22;68;48.792;9.164;2023-06-22T17:28:46;29.40;57.40
152;DHT22;68;48.792;9.164;2023-06-22T17:31:13;29.20;56.20
152;DHT22;68;48.792;9.164;2023-06-22T17:33:40;29.10;55.90
152;DHT22;68;48.792;9.164;2023-06-22T17:36:11;29.10;56.70
152;DHT22;68;48.792;9.164;2023-06-22T17:38:38;29.00;56.10
152;DHT22;68;48.792;9.164;2023-06-22T17:41:05;28.90;57.00
152;DHT22;68;48.792;9.164;2023-06-22T17:43:39;28.70;56.50
152;DHT22;68;48.792;9.164;2023-06-22T17:46:09;28.60;57.00
152;DHT22;68;48.792;9.164;2023-06-22T17:48:36;28.60;56.50
152;DHT22;68;48.792;9.164;2023-06-22T17:51:03;28.50;57.20
152;DHT22;68;48.792;9.164;2023-06-22T17:53:32;28.50;57.70
152;DHT22;68;48.792;9.164;2023-06-22T17:55:59;28.60;57.30
152;DHT22;68;48.792;9.164;2023-06-22T17:58:26;28.60;57.50
152;DHT22;68;48.792;9.164;2023-06-22T18:00:54;28.50;57.40
152;DHT22;68;48.792;9.164;2023-06-22T18:03:24;28.40;57.70
152;DHT22;68;48.792;9.164;2023-06-22T18:05:51;28.30;57.80
152;DHT22;68;48.792;9.164;2023-06-22T18:08:25;28.10;58.10
152;DHT22;68;48.792;9.164;2023-06-22T18:10:53;28.20;58.40
152;DHT22;68;48.792;9.164;2023-06-22T18:13:23;28.00;59.00
152;DHT22;68;48.792;9.164;2023-06-22T18:15:51;28.00;58.80
152;DHT22;68;48.792;9.164;2023-06-22T18:18:21;28.10;58.70
152;DHT22;68;48.792;9.164;2023-06-22T18:20:50;28.00;59.00
152;DHT22;68;48.792;9.164;2023-06-22T18:23:18;27.90;59.00
152;DHT22;68;48.792;9.164;2023-06-22T18:25:45;27.70;59.60
152;DHT22;68;48.792;9.164;2023-06-22T18:28:15;27.50;60.20
152;DHT22;68;48.792;9.164;2023-06-22T18:30:42;27.40;59.90
152;DHT22;68;48.792;9.164;2023-06-22T18:33:09;27.40;60.20
152;DHT22;68;48.792;9.164;2023-06-22T18:35:38;27.20;60.70
152;DHT22;68;48.792;9.164;2023-06-22T18:38:05;27.30;61.00
152;DHT22;68;48.792;9.164;2023-06-22T18:40:33;26.90;61.70
152;DHT22;68;48.792;9.164;2023-06-22T18:43:00;26.80;61.90
152;DHT22;68;48.792;9.164;2023-06-22T18:45:28;26.80;62.20
152;DHT22;68;48.792;9.164;2023-06-22T18:48:02;26.90;62.20
152;DHT22;68;48.792;9.164;2023-06-22T18:50:41;26.80;62.70
152;DHT22;68;48.792;9.164;2023-06-22T18:53:15;26.70;63.40
152;DHT22;68;48.792;9.164;2023-06-22T18:55:42;26.40;63.90
152;DHT22;68;48.792;9.164;2023-06-22T18:58:14;26.20;64.50
152;DHT22;68;48.792;9.164;2023-06-22T19:00:41;26.10;65.00
152;DHT22;68;48.792;9.164;2023-06-22T19:03:08;26.10;65.20
152;DHT22;68;48.792;9.164;2023-06-22T19:05:40;25.90;65.80
152;DHT22;68;48.792;9.164;2023-06-22T19:08:07;25.90;66.00
152;DHT22;68;48.792;9.164;2023-06-22T19:10:40;26.00;66.20
152;DHT22;68;48.792;9.164;2023-06-22T19:13:19;25.90;66.20
152;DHT22;68;48.792;9.164;2023-06-22T19:15:47;26.00;65.30
152;DHT22;68;48.792;9.164;2023-06-22T19:18:15;26.00;65.30
152;DHT22;68;48.792;9.164;2023-06-22T19:20:46;25.90;65.50
152;DHT22;68;48.792;9.164;2023-06-22T19:23:29;25.80;67.00
152;DHT22;68;48.792;9.164;2023-06-22T19:25:56;25.70;67.30
152;DHT22;68;48.792;9.164;2023-06-22T19:28:24;25.70;66.70
152;DHT22;68;48.792;9.164;2023-06-22T19:30:53;25.70;67.10
152;DHT22;68;48.792;9.164;2023-06-22T19:33:21;25.70;67.30
152;DHT22;68;48.792;9.164;2023-06-22T19:35:50;25.70;67.30
152;DHT22;68;48.792;9.164;2023-06-22T19:38:17;25.70;67.00
152;DHT22;68;48.792;9.164;2023-06-22T19:40:44;25.50;68.30
152;DHT22;68;48.792;9.164;2023-06-22T19:43:12;25.50;68.00
152;DHT22;68;48.792;9.164;2023-06-22T19:45:39;25.40;68.70
152;DHT22;68;48.792;9.164;2023-06-22T19:48:08;25.40;69.20
152;DHT22;68;48.792;9.164;2023-06-22T19:50:35;25.20;70.00
152;DHT22;68;48.792;9.164;2023-06-22T19:53:08;25.10;71.10
152;DHT22;68;48.792;9.164;2023-06-22T19:55:37;25.10;71.00
152;DHT22;68;48.792;9.164;2023-06-22T19:58:06;25.00;71.90
152;DHT22;68;48.792;9.164;2023-06-22T20:00:33;25.00;71.50
152;DHT22;68;48.792;9.164;2023-06-22T20:03:01;25.10;72.00
152;DHT22;68;48.792;9.164;2023-06-22T20:05:28;25.20;71.90
152;DHT22;68;48.792;9.164;2023-06-22T20:07:55;25.20;71.70
152;DHT22;68;48.792;9.164;2023-06-22T20:10:23;25.10;72.30
152;DHT22;68;48.792;9.164;2023-06-22T20:12:51;25.10;72.60
152;DHT22;68;48.792;9.164;2023-06-22T20:15:20;25.20;72.40
152;DHT22;68;48.792;9.164;2023-06-22T20:18:09;25.20;72.50
152;DHT22;68;48.792;9.164;2023-06-22T20:20:37;25.10;72.80
152;DHT22;68;48.792;9.164;2023-06-22T20:23:06;24.70;74.00
152;DHT22;68;48.792;9.164;2023-06-22T20:25:38;24.60;74.80
152;DHT22;68;48.792;9.164;2023-06-22T20:28:08;24.50;75.70
152;DHT22;68;48.792;9.164;2023-06-22T20:30:36;24.40;76.20
152;DHT22;68;48.792;9.164;2023-06-22T20:33:03;24.30;76.80
152;DHT22;68;48.792;9.164;2023-06-22T20:35:31;24.30;77.30
152;DHT22;68;48.792;9.164;2023-06-22T20:37:59;24.20;77.80
152;DHT22;68;48.792;9.164;2023-06-22T20:40:26;24.00;78.90
152;DHT22;68;48.792;9.164;2023-06-22T20:42:55;24.00;78.90
152;DHT22;68;48.792;9.164;2023-06-22T20:45:22;24.20;78.70
152;DHT22;68;48.792;9.164;2023-06-22T20:47:51;24.20;79.40
152;DHT22;68;48.792;9.164;2023-06-22T20:50:18;24.20;79.20
152;DHT22;68;48.792;9.164;2023-06-22T20:52:45;24.10;80.20
152;DHT22;68;48.792;9.164;2023-06-22T20:55:12;23.90;80.20
152;DHT22;68;48.792;9.164;2023-06-22T20:57:39;23.80;80.00
152;DHT22;68;48.792;9.164;2023-06-22T21:00:09;23.70;80.40
152;DHT22;68;48.792;9.164;2023-06-22T21:02:37;23.90;80.00
152;DHT22;68;48.792;9.164;2023-06-22T21:05:04;23.90;79.90
152;DHT22;68;48.792;9.164;2023-06-22T21:07:30;23.80;80.40
152;DHT22;68;48.792;9.164;2023-06-22T21:09:57;23.80;81.10
152;DHT22;68;48.792;9.164;2023-06-22T21:12:24;23.80;81.70